sensor_id;sensor_type;location;lat;lon;timestamp;temperature;humidity
15617;DHT22;7908;51.688;7.130;2023-04-24T00:01:11;10.10;99.90
15617;DHT22;7908;51.688;7.130;2023-04-24T00:03:40;10.20;99.90
15617;DHT22;7908;51.688;7.130;2023-04-24T00:06:11;10.20;99.90
15617;DHT22;7908;51.688;7.130;2023-04-24T00:08:40;10.20;99.90
15617;DHT22;7908;51.688;7.130;2023-04-24T00:11:08;10.20;99.90
15617;DHT22;7908;51.688;7.130;2023-04-24T00:13:37;10.20;99.90
15617;DHT22;7908;51.688;7.130;2023-04-24T00:16:07;10.20;99.90
15617;DHT22;7908;51.688;7.130;2023-04-24T00:18:35;10.20;99.90
15617;DHT22;7908;51.688;7.130;2023-04-24T00:21:05;10.20;99.90
15617;DHT22;7908;51.688;7.130;2023-04-24T00:23:35;10.20;99.90
15617;DHT22;7908;51.688;7.130;2023-04-24T00:26:04;10.10;99.90
15617;DHT22;7908;51.688;7.130;2023-04-24T00:28:32;10.10;99.90
15617;DHT22;7908;51.688;7.130;2023-04-24T00:31:01;10.10;99.90
15617;DHT22;7908;51.688;7.130;2023-04-24T00:33:30;10.10;99.90
15617;DHT22;7908;51.688;7.130;2023-04-24T00:35:59;10.10;99.90
15617;DHT22;7908;51.688;7.130;2023-04-24T00:38:27;10.10;99.90
15617;DHT22;7908;51.688;7.130;2023-04-24T00:40:58;10.10;99.90
15617;DHT22;7908;51.688;7.130;2023-04-24T00:43:26;10.10;99.90
15617;DHT22;7908;51.688;7.130;2023-04-24T00:45:55;10.20;99.90
15617;DHT22;7908;51.688;7.130;2023-04-24T00:48:25;10.20;99.90
15617;DHT22;7908;51.688;7.130;2023-04-24T00:50:54;10.20;99.90
15617;DHT22;7908;51.688;7.130;2023-04-24T00:53:23;10.20;99.90
15617;DHT22;7908;51.688;7.130;2023-04-24T00:55:52;10.20;99.90
15617;DHT22;7908;51.688;7.130;2023-04-24T00:58:22;10.20;99.90
15617;DHT22;7908;51.688;7.130;2023-04-24T01:00:52;10.20;99.90
15617;DHT22;7908;51.688;7.130;2023-04-24T01:03:22;10.20;99.90
15617;DHT22;7908;51.688;7.130;2023-04-24T01:05:54;10.20;99.90
15617;DHT22;7908;51.688;7.130;2023-04-24T01:08:24;10.20;99.90
15617;DHT22;7908;51.688;7.130;2023-04-24T01:10:55;10.20;99.90
15617;DHT22;7908;51.688;7.130;2023-04-24T01:13:26;10.30;99.90
15617;DHT22;7908;51.688;7.130;2023-04-24T01:15:55;10.30;99.90
15617;DHT22;7908;51.688;7.130;2023-04-24T01:18:24;10.30;99.90
15617;DHT22;7908;51.688;7.130;2023-04-24T01:20:57;10.20;99.90
15617;DHT22;7908;51.688;7.130;2023-04-24T01:23:27;10.10;99.90
15617;DHT22;7908;51.688;7.130;2023-04-24T01:25:56;10.10;99.90
15617;DHT22;7908;51.688;7.130;2023-04-24T01:28:24;10.10;99.90
15617;DHT22;7908;51.688;7.130;2023-04-24T01:30:53;10.00;99.90
15617;DHT22;7908;51.688;7.130;2023-04-24T01:33:22;10.00;99.90
15617;DHT22;7908;51.688;7.130;2023-04-24T01:35:51;10.00;99.90
15617;DHT22;7908;51.688;7.130;2023-04-24T01:38:20;10.00;99.90
15617;DHT22;7908;51.688;7.130;2023-04-24T01:40:51;9.90;99.90
15617;DHT22;7908;51.688;7.130;2023-04-24T01:43:20;9.90;99.90
15617;DHT22;7908;51.688;7.130;2023-04-24T01:45:49;9.90;99.90
15617;DHT22;7908;51.688;7.130;2023-04-24T01:48:18;10.00;99.90
15617;DHT22;7908;51.688;7.130;2023-04-24T01:50:46;9.90;99.90
15617;DHT22;7908;51.688;7.130;2023-04-24T01:53:15;9.90;99.90
15617;DHT22;7908;51.688;7.130;2023-04-24T01:55:44;9.80;99.90
15617;DHT22;7908;51.688;7.130;2023-04-24T01:58:14;9.90;99.90
15617;DHT22;7908;51.688;7.130;2023-04-24T02:00:42;9.80;99.90
15617;DHT22;7908;51.688;7.130;2023-04-24T02:03:11;9.70;99.90
15617;DHT22;7908;51.688;7.130;2023-04-24T02:05:40;9.70;99.90
15617;DHT22;7908;51.688;7.130;2023-04-24T02:08:09;9.70;99.90
15617;DHT22;7908;51.688;7.130;2023-04-24T02:10:37;9.70;99.90
15617;DHT22;7908;51.688;7.130;2023-04-24T02:13:06;9.70;99.90
15617;DHT22;7908;51.688;7.130;2023-04-24T02:15:36;9.70;99.90
15617;DHT22;7908;51.688;7.130;2023-04-24T02:18:05;9.70;99.90
15617;DHT22;7908;51.688;7.130;2023-04-24T02:20:34;9.70;99.90
15617;DHT22;7908;51.688;7.130;2023-04-24T02:23:02;9.60;99.90
15617;DHT22;7908;51.688;7.130;2023-04-24T02:25:31;9.60;99.90
15617;DHT22;7908;51.688;7.130;2023-04-24T02:28:00;9.60;99.90
15617;DHT22;7908;51.688;7.130;2023-04-24T02:30:29;9.60;99.90
15617;DHT22;7908;51.688;7.130;2023-04-24T02:32:59;9.60;99.90
15617;DHT22;7908;51.688;7.130;2023-04-24T02:35:28;9.60;99.90
15617;DHT22;7908;51.688;7.130;2023-04-24T02:37:57;9.50;99.90
15617;DHT22;7908;51.688;7.130;2023-04-24T02:40:25;9.50;99.90
15617;DHT22;7908;51.688;7.130;2023-04-24T02:42:54;9.50;99.90
15617;DHT22;7908;51.688;7.130;2023-04-24T02:45:23;9.50;99.90
15617;DHT22;7908;51.688;7.130;2023-04-24T02:47:51;9.60;99.90
15617;DHT22;7908;51.688;7.130;2023-04-24T02:50:22;9.60;99.90
15617;DHT22;7908;51.688;7.130;2023-04-24T02:52:50;9.60;99.90
15617;DHT22;7908;51.688;7.130;2023-04-24T02:55:19;9.50;99.90
15617;DHT22;7908;51.688;7.130;2023-04-24T02:57:48;9.50;99.90
15617;DHT22;7908;51.688;7.130;2023-04-24T03:00:16;9.50;99.90
15617;DHT22;7908;51.688;7.130;2023-04-24T03:02:45;9.50;99.90
15617;DHT22;7908;51.688;7.130;2023-04-24T03:05:14;9.50;99.90
15617;DHT22;7908;51.688;7.130;2023-04-24T03:07:44;9.50;99.90
15617;DHT22;7908;51.688;7.130;2023-04-24T03:10:14;9.50;99.90
15617;DHT22;7908;51.688;7.130;2023-04-24T03:12:42;9.50;99.90
15617;DHT22;7908;51.688;7.130;2023-04-24T03:15:11;9.50;99.90
15617;DHT22;7908;51.688;7.130;2023-04-24T03:17:40;9.50;99.90
15617;DHT22;7908;51.688;7.130;2023-04-24T03:20:09;9.40;99.90
15617;DHT22;7908;51.688;7.130;2023-04-24T03:22:38;9.50;99.90
15617;DHT22;7908;51.688;7.130;2023-04-24T03:25:09;9.50;99.90
15617;DHT22;7908;51.688;7.130;2023-04-24T03:27:37;9.50;99.90
15617;DHT22;7908;51.688;7.130;2023-04-24T03:30:07;9.50;99.90
15617;DHT22;7908;51.688;7.130;2023-04-24T03:32:36;9.50;99.90
15617;DHT22;7908;51.688;7.130;2023-04-24T03:35:07;9.50;99.90
15617;DHT22;7908;51.688;7.130;2023-04-24T03:37:35;9.50;99.90
15617;DHT22;7908;51.688;7.130;2023-04-24T03:40:05;9.40;99.90
15617;DHT22;7908;51.688;7.130;2023-04-24T03:42:35;9.50;99.90
15617;DHT22;7908;51.688;7.130;2023-04-24T03:45:06;9.50;99.90
15617;DHT22;7908;51.688;7.130;2023-04-24T03:47:35;9.50;99.90
15617;DHT22;7908;51.688;7.130;2023-04-24T03:50:05;9.40;99.90
15617;DHT22;7908;51.688;7.130;2023-04-24T03:52:33;9.40;99.90
15617;DHT22;7908;51.688;7.130;2023-04-24T03:55:02;9.50;99.90
15617;DHT22;7908;51.688;7.130;2023-04-24T03:57:31;9.50;99.90
15617;DHT22;7908;51.688;7.130;2023-04-24T04:00:01;9.50;99.90
15617;DHT22;7908;51.688;7.130;2023-04-24T04:02:31;9.50;99.90
15617;DHT22;7908;51.688;7.130;2023-04-24T04:05:00;9.50;99.90
15617;DHT22;7908;51.688;7.130;2023-04-24T04:07:29;9.40;99.90
15617;DHT22;7908;51.688;7.130;2023-04-24T04:09:58;9.40;99.90
15617;DHT22;7908;51.688;7.130;2023-04-24T04:12:26;9.40;99.90
15617;DHT22;7908;51.688;7.130;2023-04-24T04:14:55;9.40;99.90
15617;DHT22;7908;51.688;7.130;2023-04-24T04:17:25;9.40;99.90
15617;DHT22;7908;51.688;7.130;2023-04-24T04:19:54;9.40;99.90
15617;DHT22;7908;51.688;7.130;2023-04-24T04:22:23;9.40;99.90
15617;DHT22;7908;51.688;7.130;2023-04-24T04:24:52;9.40;99.90
15617;DHT22;7908;51.688;7.130;2023-04-24T04:27:20;9.40;99.90
15617;DHT22;7908;51.688;7.130;2023-04-24T04:29:49;9.40;99.90
15617;DHT22;7908;51.688;7.130;2023-04-24T04:32:18;9.40;99.90
15617;DHT22;7908;51.688;7.130;2023-04-24T04:34:48;9.30;99.90
15617;DHT22;7908;51.688;7.130;2023-04-24T04:37:22;9.40;99.90
15617;DHT22;7908;51.688;7.130;2023-04-24T04:39:55;9.40;99.90
15617;DHT22;7908;51.688;7.130;2023-04-24T04:42:28;9.40;99.90
15617;DHT22;7908;51.688;7.130;2023-04-24T04:44:57;9.40;99.90
15617;DHT22;7908;51.688;7.130;2023-04-24T04:47:27;9.50;99.90
15617;DHT22;7908;51.688;7.130;2023-04-24T04:49:57;9.50;99.90
15617;DHT22;7908;51.688;7.130;2023-04-24T04:52:26;9.50;99.90
15617;DHT22;7908;51.688;7.130;2023-04-24T04:54:54;9.50;99.90
15617;DHT22;7908;51.688;7.130;2023-04-24T04:57:23;9.50;99.90
15617;DHT22;7908;51.688;7.130;2023-04-24T04:59:52;9.50;99.90
15617;DHT22;7908;51.688;7.130;2023-04-24T05:02:21;9.60;99.90
15617;DHT22;7908;51.688;7.130;2023-04-24T05:04:49;9.60;99.90
15617;DHT22;7908;51.688;7.130;2023-04-24T05:07:20;9.60;99.90
15617;DHT22;7908;51.688;7.130;2023-04-24T05:09:48;9.50;99.90
15617;DHT22;7908;51.688;7.130;2023-04-24T05:12:18;9.60;99.90
15617;DHT22;7908;51.688;7.130;2023-04-24T05:14:47;9.60;99.90
15617;DHT22;7908;51.688;7.130;2023-04-24T05:17:15;9.70;99.90
15617;DHT22;7908;51.688;7.130;2023-04-24T05:19:44;9.70;99.90
15617;DHT22;7908;51.688;7.130;2023-04-24T05:22:13;9.70;99.90
15617;DHT22;7908;51.688;7.130;2023-04-24T05:24:43;9.70;99.90
15617;DHT22;7908;51.688;7.130;2023-04-24T05:27:12;9.70;99.90
15617;DHT22;7908;51.688;7.130;2023-04-24T05:29:40;9.70;99.90
15617;DHT22;7908;51.688;7.130;2023-04-24T05:32:10;9.70;99.90
15617;DHT22;7908;51.688;7.130;2023-04-24T05:34:38;9.70;99.90
15617;DHT22;7908;51.688;7.130;2023-04-24T05:37:07;9.70;99.90
15617;DHT22;7908;51.688;7.130;2023-04-24T05:39:37;9.70;99.90
15617;DHT22;7908;51.688;7.130;2023-04-24T05:42:07;9.70;99.90
15617;DHT22;7908;51.688;7.130;2023-04-24T05:44:35;9.80;99.90
15617;DHT22;7908;51.688;7.130;2023-04-24T05:47:04;9.80;99.90
15617;DHT22;7908;51.688;7.130;2023-04-24T05:49:33;9.80;99.90
15617;DHT22;7908;51.688;7.130;2023-04-24T05:52:01;9.90;99.90
15617;DHT22;7908;51.688;7.130;2023-04-24T05:54:31;9.90;99.90
15617;DHT22;7908;51.688;7.130;2023-04-24T05:56:59;9.90;99.90
15617;DHT22;7908;51.688;7.130;2023-04-24T05:59:32;9.90;99.90
15617;DHT22;7908;51.688;7.130;2023-04-24T06:02:01;9.90;99.90
15617;DHT22;7908;51.688;7.130;2023-04-24T06:04:31;9.90;99.90
15617;DHT22;7908;51.688;7.130;2023-04-24T06:07:00;9.80;99.90
15617;DHT22;7908;51.688;7.130;2023-04-24T06:09:28;9.80;99.90
15617;DHT22;7908;51.688;7.130;2023-04-24T06:11:57;9.80;99.90
15617;DHT22;7908;51.688;7.130;2023-04-24T06:14:27;9.80;99.90
15617;DHT22;7908;51.688;7.130;2023-04-24T06:16:57;9.70;99.90
15617;DHT22;7908;51.688;7.130;2023-04-24T06:19:29;9.80;99.90
15617;DHT22;7908;51.688;7.130;2023-04-24T06:21:57;9.70;99.90
15617;DHT22;7908;51.688;7.130;2023-04-24T06:24:27;9.70;99.90
15617;DHT22;7908;51.688;7.130;2023-04-24T06:26:56;9.70;99.90
15617;DHT22;7908;51.688;7.130;2023-04-24T06:29:27;9.70;99.90
15617;DHT22;7908;51.688;7.130;2023-04-24T06:31:57;9.70;99.90
15617;DHT22;7908;51.688;7.130;2023-04-24T06:34:25;9.70;99.90
15617;DHT22;7908;51.688;7.130;2023-04-24T06:36:54;9.70;99.90
15617;DHT22;7908;51.688;7.130;2023-04-24T06:39:23;9.70;99.90
15617;DHT22;7908;51.688;7.130;2023-04-24T06:41:51;9.80;99.90
15617;DHT22;7908;51.688;7.130;2023-04-24T06:44:20;9.80;99.90
15617;DHT22;7908;51.688;7.130;2023-04-24T06:46:49;9.80;99.90
15617;DHT22;7908;51.688;7.130;2023-04-24T06:49:18;9.90;99.90
15617;DHT22;7908;51.688;7.130;2023-04-24T06:51:47;9.90;99.90
15617;DHT22;7908;51.688;7.130;2023-04-24T06:54:16;9.80;99.90
15617;DHT22;7908;51.688;7.130;2023-04-24T06:56:44;9.70;99.90
15617;DHT22;7908;51.688;7.130;2023-04-24T06:59:15;9.60;99.90
15617;DHT22;7908;51.688;7.130;2023-04-24T07:01:43;9.60;99.90
15617;DHT22;7908;51.688;7.130;2023-04-24T07:04:12;9.50;99.90
15617;DHT22;7908;51.688;7.130;2023-04-24T07:06:43;9.50;99.90
15617;DHT22;7908;51.688;7.130;2023-04-24T07:09:13;9.50;99.90
15617;DHT22;7908;51.688;7.130;2023-04-24T07:11:43;9.60;99.90
15617;DHT22;7908;51.688;7.130;2023-04-24T07:14:12;9.60;99.90
15617;DHT22;7908;51.688;7.130;2023-04-24T07:16:43;9.70;99.90
15617;DHT22;7908;51.688;7.130;2023-04-24T07:19:12;9.70;99.90
15617;DHT22;7908;51.688;7.130;2023-04-24T07:21:42;9.70;99.90
15617;DHT22;7908;51.688;7.130;2023-04-24T07:24:11;9.70;99.90
15617;DHT22;7908;51.688;7.130;2023-04-24T07:26:40;9.70;99.90
15617;DHT22;7908;51.688;7.130;2023-04-24T07:29:09;9.70;99.90
15617;DHT22;7908;51.688;7.130;2023-04-24T07:31:37;9.70;99.90
15617;DHT22;7908;51.688;7.130;2023-04-24T07:34:08;9.70;99.90
15617;DHT22;7908;51.688;7.130;2023-04-24T07:36:37;9.70;99.90
15617;DHT22;7908;51.688;7.130;2023-04-24T07:39:08;9.80;99.90
15617;DHT22;7908;51.688;7.130;2023-04-24T07:41:36;9.80;99.90
15617;DHT22;7908;51.688;7.130;2023-04-24T07:44:05;9.70;99.90
15617;DHT22;7908;51.688;7.130;2023-04-24T07:46:33;9.80;99.90
15617;DHT22;7908;51.688;7.130;2023-04-24T07:49:02;9.70;99.90
15617;DHT22;7908;51.688;7.130;2023-04-24T07:51:40;9.70;99.90
15617;DHT22;7908;51.688;7.130;2023-04-24T07:54:10;9.70;99.90
15617;DHT22;7908;51.688;7.130;2023-04-24T07:56:40;9.70;99.90
15617;DHT22;7908;51.688;7.130;2023-04-24T07:59:10;9.70;99.90
15617;DHT22;7908;51.688;7.130;2023-04-24T08:01:39;9.70;99.90
15617;DHT22;7908;51.688;7.130;2023-04-24T08:04:07;9.70;99.90
15617;DHT22;7908;51.688;7.130;2023-04-24T08:06:36;9.70;99.90
15617;DHT22;7908;51.688;7.130;2023-04-24T08:09:05;9.70;99.90
15617;DHT22;7908;51.688;7.130;2023-04-24T08:11:35;9.80;99.90
15617;DHT22;7908;51.688;7.130;2023-04-24T08:14:04;9.80;99.90
15617;DHT22;7908;51.688;7.130;2023-04-24T08:16:33;9.90;99.90
15617;DHT22;7908;51.688;7.130;2023-04-24T08:19:01;9.90;99.90
15617;DHT22;7908;51.688;7.130;2023-04-24T08:21:30;10.00;99.90
15617;DHT22;7908;51.688;7.130;2023-04-24T08:24:02;10.00;99.90
15617;DHT22;7908;51.688;7.130;2023-04-24T08:26:32;10.00;99.90
15617;DHT22;7908;51.688;7.130;2023-04-24T08:29:03;10.00;99.90
15617;DHT22;7908;51.688;7.130;2023-04-24T08:31:31;9.90;99.90
15617;DHT22;7908;51.688;7.130;2023-04-24T08:34:00;9.80;99.90
15617;DHT22;7908;51.688;7.130;2023-04-24T08:36:29;9.80;99.90
15617;DHT22;7908;51.688;7.130;2023-04-24T08:39:12;9.80;99.90
15617;DHT22;7908;51.688;7.130;2023-04-24T08:41:42;9.80;99.90
15617;DHT22;7908;51.688;7.130;2023-04-24T08:44:14;9.80;99.90
15617;DHT22;7908;51.688;7.130;2023-04-24T08:46:43;9.80;99.90
15617;DHT22;7908;51.688;7.130;2023-04-24T08:49:15;9.80;99.90
15617;DHT22;7908;51.688;7.130;2023-04-24T08:51:45;9.80;99.90
15617;DHT22;7908;51.688;7.130;2023-04-24T08:54:15;9.80;99.90
15617;DHT22;7908;51.688;7.130;2023-04-24T08:56:44;9.70;99.90
15617;DHT22;7908;51.688;7.130;2023-04-24T08:59:15;9.70;99.90
15617;DHT22;7908;51.688;7.130;2023-04-24T09:01:45;9.60;99.90
15617;DHT22;7908;51.688;7.130;2023-04-24T09:04:17;9.50;99.90
15617;DHT22;7908;51.688;7.130;2023-04-24T09:06:48;9.50;99.90
15617;DHT22;7908;51.688;7.130;2023-04-24T09:09:17;9.40;99.90
15617;DHT22;7908;51.688;7.130;2023-04-24T09:11:46;9.40;99.90
15617;DHT22;7908;51.688;7.130;2023-04-24T09:14:19;9.40;99.90
15617;DHT22;7908;51.688;7.130;2023-04-24T09:16:48;9.40;99.90
15617;DHT22;7908;51.688;7.130;2023-04-24T09:19:16;9.40;99.90
15617;DHT22;7908;51.688;7.130;2023-04-24T09:21:46;9.50;99.90
15617;DHT22;7908;51.688;7.130;2023-04-24T09:24:19;9.40;99.90
15617;DHT22;7908;51.688;7.130;2023-04-24T09:26:56;9.40;99.90
15617;DHT22;7908;51.688;7.130;2023-04-24T09:29:27;9.40;99.90
15617;DHT22;7908;51.688;7.130;2023-04-24T09:31:56;9.50;99.90
15617;DHT22;7908;51.688;7.130;2023-04-24T09:34:26;9.50;99.90
15617;DHT22;7908;51.688;7.130;2023-04-24T09:36:55;9.50;99.90
15617;DHT22;7908;51.688;7.130;2023-04-24T09:39:24;9.50;99.90
15617;DHT22;7908;51.688;7.130;2023-04-24T09:41:53;9.50;99.90
15617;DHT22;7908;51.688;7.130;2023-04-24T09:44:27;9.40;99.90
15617;DHT22;7908;51.688;7.130;2023-04-24T09:46:57;9.40;99.90
15617;DHT22;7908;51.688;7.130;2023-04-24T09:49:27;9.40;99.90
15617;DHT22;7908;51.688;7.130;2023-04-24T09:52:03;9.40;99.90
15617;DHT22;7908;51.688;7.130;2023-04-24T09:54:32;9.30;99.90
15617;DHT22;7908;51.688;7.130;2023-04-24T09:57:01;9.20;99.90
15617;DHT22;7908;51.688;7.130;2023-04-24T09:59:31;9.10;99.90
15617;DHT22;7908;51.688;7.130;2023-04-24T10:02:03;9.00;99.90
15617;DHT22;7908;51.688;7.130;2023-04-24T10:04:54;8.90;99.90
15617;DHT22;7908;51.688;7.130;2023-04-24T10:07:26;8.80;99.90
15617;DHT22;7908;51.688;7.130;2023-04-24T10:09:54;8.80;99.90
15617;DHT22;7908;51.688;7.130;2023-04-24T10:12:23;8.80;99.90
15617;DHT22;7908;51.688;7.130;2023-04-24T10:14:54;8.80;99.90
15617;DHT22;7908;51.688;7.130;2023-04-24T10:17:23;8.70;99.90
15617;DHT22;7908;51.688;7.130;2023-04-24T10:19:53;8.70;99.90
15617;DHT22;7908;51.688;7.130;2023-04-24T10:22:23;8.70;99.90
15617;DHT22;7908;51.688;7.130;2023-04-24T10:24:52;8.70;99.90
15617;DHT22;7908;51.688;7.130;2023-04-24T10:27:21;8.70;99.90
15617;DHT22;7908;51.688;7.130;2023-04-24T10:29:54;8.80;99.90
15617;DHT22;7908;51.688;7.130;2023-04-24T10:32:23;8.80;99.90
15617;DHT22;7908;51.688;7.130;2023-04-24T10:34:54;8.70;99.90
15617;DHT22;7908;51.688;7.130;2023-04-24T10:37:25;8.70;99.90
15617;DHT22;7908;51.688;7.130;2023-04-24T10:39:54;8.80;99.90
15617;DHT22;7908;51.688;7.130;2023-04-24T10:42:24;8.80;99.90
15617;DHT22;7908;51.688;7.130;2023-04-24T10:44:56;8.80;99.90
15617;DHT22;7908;51.688;7.130;2023-04-24T10:47:26;8.80;99.90
15617;DHT22;7908;51.688;7.130;2023-04-24T10:49:59;8.80;99.90
15617;DHT22;7908;51.688;7.130;2023-04-24T10:52:46;8.80;99.90
15617;DHT22;7908;51.688;7.130;2023-04-24T10:55:14;8.80;99.90
15617;DHT22;7908;51.688;7.130;2023-04-24T10:58:01;8.90;99.90
15617;DHT22;7908;51.688;7.130;2023-04-24T11:00:31;8.80;99.90
15617;DHT22;7908;51.688;7.130;2023-04-24T11:03:05;8.80;99.90
15617;DHT22;7908;51.688;7.130;2023-04-24T11:05:51;8.80;99.90
15617;DHT22;7908;51.688;7.130;2023-04-24T11:08:28;8.80;99.90
15617;DHT22;7908;51.688;7.130;2023-04-24T11:11:00;8.70;99.90
15617;DHT22;7908;51.688;7.130;2023-04-24T11:14:03;8.70;99.90
15617;DHT22;7908;51.688;7.130;2023-04-24T11:16:42;8.70;99.90
15617;DHT22;7908;51.688;7.130;2023-04-24T11:19:21;8.70;99.90
15617;DHT22;7908;51.688;7.130;2023-04-24T11:21:56;8.80;99.90
15617;DHT22;7908;51.688;7.130;2023-04-24T11:24:32;8.80;99.90
15617;DHT22;7908;51.688;7.130;2023-04-24T11:27:06;8.70;99.90
15617;DHT22;7908;51.688;7.130;2023-04-24T11:29:44;8.70;99.90
15617;DHT22;7908;51.688;7.130;2023-04-24T11:32:22;8.80;99.90
15617;DHT22;7908;51.688;7.130;2023-04-24T11:34:53;8.70;99.90
15617;DHT22;7908;51.688;7.130;2023-04-24T11:37:22;8.80;99.90
15617;DHT22;7908;51.688;7.130;2023-04-24T11:39:53;8.90;99.90
15617;DHT22;7908;51.688;7.130;2023-04-24T11:42:22;9.10;99.90
15617;DHT22;7908;51.688;7.130;2023-04-24T11:44:53;9.20;99.90
15617;DHT22;7908;51.688;7.130;2023-04-24T11:47:30;9.30;99.90
15617;DHT22;7908;51.688;7.130;2023-04-24T11:50:01;9.40;99.90
15617;DHT22;7908;51.688;7.130;2023-04-24T11:52:31;9.40;99.90
15617;DHT22;7908;51.688;7.130;2023-04-24T11:55:00;9.30;99.90
15617;DHT22;7908;51.688;7.130;2023-04-24T11:57:30;9.40;99.90
15617;DHT22;7908;51.688;7.130;2023-04-24T12:00:02;9.60;99.90
15617;DHT22;7908;51.688;7.130;2023-04-24T12:02:33;9.70;99.90
15617;DHT22;7908;51.688;7.130;2023-04-24T12:05:06;9.80;99.90
15617;DHT22;7908;51.688;7.130;2023-04-24T12:07:41;9.80;99.90
15617;DHT22;7908;51.688;7.130;2023-04-24T12:10:11;9.90;99.90
15617;DHT22;7908;51.688;7.130;2023-04-24T12:12:39;10.00;99.90
15617;DHT22;7908;51.688;7.130;2023-04-24T12:15:09;10.00;99.90
15617;DHT22;7908;51.688;7.130;2023-04-24T12:17:42;9.80;99.90
15617;DHT22;7908;51.688;7.130;2023-04-24T12:20:12;9.70;99.90
15617;DHT22;7908;51.688;7.130;2023-04-24T12:22:47;9.60;99.90
15617;DHT22;7908;51.688;7.130;2023-04-24T12:25:17;9.50;99.90
15617;DHT22;7908;51.688;7.130;2023-04-24T12:27:46;9.60;99.90
15617;DHT22;7908;51.688;7.130;2023-04-24T12:30:20;9.50;99.90
15617;DHT22;7908;51.688;7.130;2023-04-24T12:32:51;9.40;99.90
15617;DHT22;7908;51.688;7.130;2023-04-24T12:35:23;9.40;99.90
15617;DHT22;7908;51.688;7.130;2023-04-24T12:37:54;9.40;99.90
15617;DHT22;7908;51.688;7.130;2023-04-24T12:40:25;9.40;99.90
15617;DHT22;7908;51.688;7.130;2023-04-24T12:42:56;9.30;99.90
15617;DHT22;7908;51.688;7.130;2023-04-24T12:45:25;9.40;99.90
15617;DHT22;7908;51.688;7.130;2023-04-24T12:47:56;9.30;99.90
15617;DHT22;7908;51.688;7.130;2023-04-24T12:50:25;9.30;99.90
15617;DHT22;7908;51.688;7.130;2023-04-24T12:52:54;9.30;99.90
15617;DHT22;7908;51.688;7.130;2023-04-24T12:55:23;9.40;99.90
15617;DHT22;7908;51.688;7.130;2023-04-24T12:57:51;9.50;99.90
15617;DHT22;7908;51.688;7.130;2023-04-24T13:00:22;9.50;99.90
15617;DHT22;7908;51.688;7.130;2023-04-24T13:02:51;9.50;99.90
15617;DHT22;7908;51.688;7.130;2023-04-24T13:05:22;9.50;99.90
15617;DHT22;7908;51.688;7.130;2023-04-24T13:07:51;9.60;99.90
15617;DHT22;7908;51.688;7.130;2023-04-24T13:10:20;9.60;99.90
15617;DHT22;7908;51.688;7.130;2023-04-24T13:12:49;9.60;99.90
15617;DHT22;7908;51.688;7.130;2023-04-24T13:15:18;9.70;99.90
15617;DHT22;7908;51.688;7.130;2023-04-24T13:17:47;9.70;99.90
15617;DHT22;7908;51.688;7.130;2023-04-24T13:20:16;9.60;99.90
15617;DHT22;7908;51.688;7.130;2023-04-24T13:22:47;9.60;99.90
15617;DHT22;7908;51.688;7.130;2023-04-24T13:25:16;9.70;99.90
15617;DHT22;7908;51.688;7.130;2023-04-24T13:27:45;9.70;99.90
15617;DHT22;7908;51.688;7.130;2023-04-24T13:30:14;9.60;99.90
15617;DHT22;7908;51.688;7.130;2023-04-24T13:32:43;9.50;99.90
15617;DHT22;7908;51.688;7.130;2023-04-24T13:35:12;9.50;99.90
15617;DHT22;7908;51.688;7.130;2023-04-24T13:37:41;9.40;99.90
15617;DHT22;7908;51.688;7.130;2023-04-24T13:40:12;9.50;99.90
15617;DHT22;7908;51.688;7.130;2023-04-24T13:42:41;9.60;99.90
15617;DHT22;7908;51.688;7.130;2023-04-24T13:45:10;9.80;99.90
15617;DHT22;7908;51.688;7.130;2023-04-24T13:47:51;9.90;99.90
15617;DHT22;7908;51.688;7.130;2023-04-24T13:50:21;10.10;99.90
15617;DHT22;7908;51.688;7.130;2023-04-24T13:52:50;10.10;99.90
15617;DHT22;7908;51.688;7.130;2023-04-24T13:55:20;10.10;99.90
15617;DHT22;7908;51.688;7.130;2023-04-24T13:57:49;10.10;99.90
15617;DHT22;7908;51.688;7.130;2023-04-24T14:00:19;10.10;99.90
15617;DHT22;7908;51.688;7.130;2023-04-24T14:02:48;9.90;99.90
15617;DHT22;7908;51.688;7.130;2023-04-24T14:05:17;9.80;99.90
15617;DHT22;7908;51.688;7.130;2023-04-24T14:07:48;9.80;99.90
15617;DHT22;7908;51.688;7.130;2023-04-24T14:10:18;9.70;99.90
15617;DHT22;7908;51.688;7.130;2023-04-24T14:12:48;9.60;99.90
15617;DHT22;7908;51.688;7.130;2023-04-24T14:15:17;9.60;99.90
15617;DHT22;7908;51.688;7.130;2023-04-24T14:17:47;9.50;99.90
15617;DHT22;7908;51.688;7.130;2023-04-24T14:20:16;9.60;99.90
15617;DHT22;7908;51.688;7.130;2023-04-24T14:22:44;9.60;99.90
15617;DHT22;7908;51.688;7.130;2023-04-24T14:25:13;9.70;99.90
15617;DHT22;7908;51.688;7.130;2023-04-24T14:27:42;9.90;99.90
15617;DHT22;7908;51.688;7.130;2023-04-24T14:30:13;9.90;99.90
15617;DHT22;7908;51.688;7.130;2023-04-24T14:32:43;9.90;99.90
15617;DHT22;7908;51.688;7.130;2023-04-24T14:35:12;10.00;99.90
15617;DHT22;7908;51.688;7.130;2023-04-24T14:37:41;10.00;99.90
15617;DHT22;7908;51.688;7.130;2023-04-24T14:40:10;9.90;99.90
15617;DHT22;7908;51.688;7.130;2023-04-24T14:42:59;9.90;99.90
15617;DHT22;7908;51.688;7.130;2023-04-24T14:45:30;9.90;99.90
15617;DHT22;7908;51.688;7.130;2023-04-24T14:47:59;10.00;99.90
15617;DHT22;7908;51.688;7.130;2023-04-24T14:50:27;10.10;99.90
15617;DHT22;7908;51.688;7.130;2023-04-24T14:52:56;10.20;99.90
15617;DHT22;7908;51.688;7.130;2023-04-24T14:55:26;10.30;99.90
15617;DHT22;7908;51.688;7.130;2023-04-24T14:57:55;10.30;99.90
15617;DHT22;7908;51.688;7.130;2023-04-24T15:00:24;10.30;99.90
15617;DHT22;7908;51.688;7.130;2023-04-24T15:02:55;10.30;99.90
15617;DHT22;7908;51.688;7.130;2023-04-24T15:05:24;10.50;99.90
15617;DHT22;7908;51.688;7.130;2023-04-24T15:07:53;10.40;99.90
15617;DHT22;7908;51.688;7.130;2023-04-24T15:10:22;10.40;99.90
15617;DHT22;7908;51.688;7.130;2023-04-24T15:12:52;10.40;99.90
15617;DHT22;7908;51.688;7.130;2023-04-24T15:15:21;10.30;99.90
15617;DHT22;7908;51.688;7.130;2023-04-24T15:17:50;10.20;99.90
15617;DHT22;7908;51.688;7.130;2023-04-24T15:20:21;10.20;99.90
15617;DHT22;7908;51.688;7.130;2023-04-24T15:22:50;10.00;99.90
15617;DHT22;7908;51.688;7.130;2023-04-24T15:25:19;9.90;99.90
15617;DHT22;7908;51.688;7.130;2023-04-24T15:27:48;9.80;99.90
15617;DHT22;7908;51.688;7.130;2023-04-24T15:30:17;9.70;99.90
15617;DHT22;7908;51.688;7.130;2023-04-24T15:32:46;9.70;99.90
15617;DHT22;7908;51.688;7.130;2023-04-24T15:35:15;9.60;99.90
15617;DHT22;7908;51.688;7.130;2023-04-24T15:37:46;9.60;99.90
15617;DHT22;7908;51.688;7.130;2023-04-24T15:40:15;9.50;99.90
15617;DHT22;7908;51.688;7.130;2023-04-24T15:42:44;9.50;99.90
15617;DHT22;7908;51.688;7.130;2023-04-24T15:45:13;9.50;99.90
15617;DHT22;7908;51.688;7.130;2023-04-24T15:47:43;9.40;99.90
15617;DHT22;7908;51.688;7.130;2023-04-24T15:50:13;9.10;99.90
15617;DHT22;7908;51.688;7.130;2023-04-24T15:52:45;8.90;99.90
15617;DHT22;7908;51.688;7.130;2023-04-24T15:55:14;8.80;99.90
15617;DHT22;7908;51.688;7.130;2023-04-24T15:57:43;8.70;99.90
15617;DHT22;7908;51.688;7.130;2023-04-24T16:00:13;8.60;99.90
15617;DHT22;7908;51.688;7.130;2023-04-24T16:02:42;8.50;99.90
15617;DHT22;7908;51.688;7.130;2023-04-24T16:05:14;8.50;99.90
15617;DHT22;7908;51.688;7.130;2023-04-24T16:07:43;8.40;99.90
15617;DHT22;7908;51.688;7.130;2023-04-24T16:10:13;8.50;99.90
15617;DHT22;7908;51.688;7.130;2023-04-24T16:12:45;8.60;99.90
15617;DHT22;7908;51.688;7.130;2023-04-24T16:15:15;8.70;99.90
15617;DHT22;7908;51.688;7.130;2023-04-24T16:17:44;8.80;99.90